createdAt,value
2023-01-31T00:03:14.589Z,11.00
2023-01-31T00:08:16.519Z,10.80
2023-01-31T00:13:18.346Z,13.60
2023-01-31T00:18:20.139Z,9.38
2023-01-31T00:23:22.020Z,8.23
2023-01-31T00:28:23.801Z,12.15
2023-01-31T00:33:25.583Z,13.10
2023-01-31T00:38:27.459Z,12.57
2023-01-31T00:43:29.540Z,8.63
2023-01-31T00:48:31.778Z,12.13
2023-01-31T00:53:34.898Z,9.95
2023-01-31T00:58:37.601Z,8.77
2023-01-31T01:03:40.955Z,10.40
2023-01-31T01:08:43.764Z,8.82
2023-01-31T01:13:46.029Z,6.25
2023-01-31T01:18:49.371Z,13.05
2023-01-31T01:23:52.255Z,11.00
2023-01-31T01:28:55.694Z,10.80
2023-01-31T01:34:12.018Z,9.70
2023-01-31T01:39:13.904Z,10.52
2023-01-31T01:44:54.474Z,11.73
2023-01-31T01:50:03.024Z,4.45
2023-01-31T01:55:14.857Z,8.02
2023-01-31T02:00:22.716Z,8.50
2023-01-31T02:05:40.621Z,9.80
2023-01-31T02:10:49.016Z,6.13
2023-01-31T02:15:51.078Z,11.30
2023-01-31T02:21:35.976Z,9.38
2023-01-31T02:27:05.226Z,4.50
2023-01-31T02:32:25.457Z,9.25
2023-01-31T02:37:50.609Z,6.30
2023-01-31T02:43:34.247Z,7.78
2023-01-31T02:48:46.022Z,8.27
2023-01-31T02:54:00.156Z,9.23
2023-01-31T02:59:22.000Z,11.30
2023-01-31T03:04:30.099Z,11.93
2023-01-31T03:09:37.927Z,14.15
2023-01-31T03:15:20.170Z,12.67
2023-01-31T03:20:28.169Z,9.25
2023-01-31T03:25:34.828Z,10.13
2023-01-31T03:30:48.831Z,12.93
2023-01-31T03:35:58.248Z,11.32
2023-01-31T03:41:16.123Z,8.60
2023-01-31T03:46:28.120Z,12.68
2023-01-31T03:51:33.042Z,7.28
2023-01-31T03:57:00.145Z,7.80
2023-01-31T04:02:05.591Z,11.88
2023-01-31T04:07:07.556Z,10.52
2023-01-31T04:12:15.270Z,14.30
2023-01-31T04:17:17.180Z,7.78
2023-01-31T04:22:18.994Z,9.45
2023-01-31T04:27:20.759Z,15.85
2023-01-31T04:32:22.556Z,13.77
2023-01-31T04:37:24.374Z,9.68
2023-01-31T04:42:26.149Z,8.15
2023-01-31T04:47:27.956Z,6.93
2023-01-31T04:52:29.749Z,9.48
2023-01-31T04:57:31.749Z,10.35
2023-01-31T05:02:33.832Z,12.23
2023-01-31T05:07:35.826Z,6.22
2023-01-31T05:12:37.985Z,11.25
2023-01-31T05:17:39.818Z,9.40
2023-01-31T05:22:41.594Z,6.28
2023-01-31T05:27:44.970Z,15.07
2023-01-31T05:32:49.169Z,6.15
2023-01-31T05:37:53.750Z,9.55
2023-01-31T05:42:58.208Z,11.13
2023-01-31T05:48:00.214Z,13.57
2023-01-31T05:53:05.274Z,14.07
2023-01-31T05:58:07.206Z,13.70
2023-01-31T06:03:09.634Z,9.43
2023-01-31T06:08:11.455Z,9.20
2023-01-31T06:13:13.268Z,12.02
2023-01-31T06:18:15.113Z,9.52
2023-01-31T06:23:17.000Z,10.88
2023-01-31T06:28:19.445Z,13.52
2023-01-31T06:33:22.731Z,12.63
2023-01-31T06:38:27.320Z,7.97
2023-01-31T06:43:29.149Z,8.02
2023-01-31T06:48:31.654Z,7.88
2023-01-31T06:53:33.540Z,8.90
2023-01-31T06:58:35.643Z,7.72
2023-01-31T07:03:38.378Z,13.98
2023-01-31T07:08:40.269Z,6.55
2023-01-31T07:13:42.114Z,8.23
2023-01-31T07:18:43.941Z,8.25
2023-01-31T07:23:46.438Z,8.60
2023-01-31T07:28:48.237Z,6.40
2023-01-31T07:33:50.134Z,10.00
2023-01-31T07:38:55.749Z,10.15
2023-01-31T07:43:58.830Z,10.00
2023-01-31T07:49:01.096Z,11.13
2023-01-31T07:54:02.962Z,7.75
2023-01-31T07:59:04.783Z,9.35
2023-01-31T08:04:20.579Z,9.15
2023-01-31T08:09:24.858Z,8.20
2023-01-31T08:14:28.342Z,10.25
2023-01-31T08:19:30.593Z,13.68
2023-01-31T08:24:33.467Z,8.20
2023-01-31T08:29:35.326Z,7.55
2023-01-31T08:34:37.150Z,6.35
2023-01-31T08:39:39.061Z,6.93
2023-01-31T08:44:40.828Z,11.45
2023-01-31T08:49:42.640Z,9.85
2023-01-31T08:54:44.461Z,7.85
2023-01-31T08:59:46.407Z,6.18
2023-01-31T09:04:49.634Z,5.90
2023-01-31T09:09:51.512Z,9.77
2023-01-31T09:14:54.005Z,6.35
2023-01-31T09:19:56.412Z,5.57
2023-01-31T09:24:58.281Z,6.90
2023-01-31T09:30:00.247Z,6.63
2023-01-31T09:35:02.037Z,7.40
2023-01-31T09:40:06.278Z,10.63
2023-01-31T09:45:32.095Z,12.70
2023-01-31T09:50:46.578Z,10.13
2023-01-31T09:55:57.678Z,8.43
2023-01-31T10:01:18.504Z,8.23
2023-01-31T10:06:24.713Z,7.50
2023-01-31T10:11:51.882Z,10.90
2023-01-31T10:16:56.584Z,7.05
2023-01-31T10:22:04.268Z,10.70
2023-01-31T10:27:21.389Z,9.48
2023-01-31T10:32:33.719Z,6.10
2023-01-31T10:37:44.541Z,7.45
2023-01-31T10:42:52.802Z,9.02
2023-01-31T10:48:16.271Z,9.65
2023-01-31T10:53:55.477Z,6.82
2023-01-31T10:59:00.183Z,7.00
2023-01-31T11:04:26.440Z,8.18
2023-01-31T11:09:37.075Z,7.60
2023-01-31T11:14:39.334Z,8.10
2023-01-31T11:19:50.592Z,7.57
2023-01-31T11:24:53.878Z,7.50
2023-01-31T11:30:00.129Z,8.38
2023-01-31T11:35:06.886Z,13.32
2023-01-31T11:40:29.800Z,10.85
2023-01-31T11:45:36.823Z,13.75
2023-01-31T11:50:46.032Z,8.55
2023-01-31T11:55:50.191Z,13.55
2023-01-31T12:01:20.840Z,12.25
2023-01-31T12:06:27.376Z,8.48
2023-01-31T12:11:32.505Z,16.30
2023-01-31T12:16:37.431Z,15.32
2023-01-31T12:22:29.178Z,7.68
2023-01-31T12:27:46.149Z,10.30
2023-01-31T12:33:08.609Z,13.10
2023-01-31T12:38:36.999Z,14.50
2023-01-31T12:44:06.253Z,13.95
2023-01-31T12:49:33.896Z,14.77
2023-01-31T12:54:41.756Z,16.02
2023-01-31T12:59:56.480Z,18.27
2023-01-31T13:05:07.571Z,20.55
2023-01-31T13:10:39.807Z,21.13
2023-01-31T13:15:49.719Z,17.65
2023-01-31T13:20:59.479Z,19.63
2023-01-31T13:26:13.333Z,17.10
2023-01-31T13:31:22.174Z,13.43
2023-01-31T13:36:37.327Z,16.42
2023-01-31T13:41:40.078Z,17.33
2023-01-31T13:47:14.677Z,14.77
2023-01-31T13:52:23.091Z,14.68
2023-01-31T13:57:35.562Z,14.55
2023-01-31T14:02:37.443Z,15.10
2023-01-31T14:07:39.290Z,7.40
2023-01-31T14:12:41.093Z,15.48
2023-01-31T14:17:43.069Z,13.18
2023-01-31T14:23:27.802Z,12.18
2023-01-31T14:28:30.359Z,13.48
2023-01-31T14:33:32.307Z,9.18
2023-01-31T14:38:55.737Z,9.27
2023-01-31T14:44:16.883Z,12.32
2023-01-31T14:49:45.135Z,14.95
2023-01-31T14:55:05.811Z,9.25
2023-01-31T15:00:14.060Z,11.15
2023-01-31T15:05:39.456Z,10.77
2023-01-31T15:11:02.655Z,14.55
2023-01-31T15:16:22.776Z,12.77
2023-01-31T15:21:29.817Z,14.82
2023-01-31T15:26:35.561Z,16.67
2023-01-31T15:31:44.432Z,12.32
2023-01-31T15:36:59.817Z,13.02
2023-01-31T15:42:22.420Z,12.40
2023-01-31T15:47:24.262Z,10.90
2023-01-31T15:52:27.663Z,9.00
2023-01-31T15:57:41.585Z,13.43
2023-01-31T16:02:43.405Z,11.77
2023-01-31T16:07:47.684Z,15.17
2023-01-31T16:12:53.212Z,11.25
2023-01-31T16:17:58.468Z,9.00
2023-01-31T16:23:00.390Z,10.25
2023-01-31T16:28:11.316Z,7.57
2023-01-31T16:33:18.428Z,8.63
2023-01-31T16:38:29.475Z,6.63
2023-01-31T16:43:33.931Z,6.25
2023-01-31T16:48:38.663Z,3.85
2023-01-31T16:53:41.644Z,4.80
2023-01-31T16:59:03.671Z,5.97
2023-01-31T17:04:11.521Z,7.60
2023-01-31T17:09:19.065Z,9.65
2023-01-31T17:14:20.930Z,5.78
2023-01-31T17:19:23.472Z,6.07
2023-01-31T17:24:25.414Z,6.20
2023-01-31T17:29:27.454Z,7.88
2023-01-31T17:34:29.297Z,5.85
2023-01-31T17:39:31.094Z,7.00
2023-01-31T17:44:32.928Z,10.40
2023-01-31T17:49:35.114Z,9.35
2023-01-31T17:54:37.099Z,6.70
2023-01-31T17:59:38.885Z,7.00
2023-01-31T18:04:40.678Z,6.18
2023-01-31T18:09:42.545Z,6.32
2023-01-31T18:14:44.376Z,6.00
2023-01-31T18:19:46.393Z,5.40
2023-01-31T18:24:48.216Z,6.63
2023-01-31T18:29:50.025Z,6.47
2023-01-31T18:34:51.923Z,6.10
2023-01-31T18:39:53.959Z,6.15
2023-01-31T18:44:55.871Z,4.95
2023-01-31T18:49:57.689Z,7.43
2023-01-31T18:54:59.671Z,4.28
2023-01-31T19:00:01.503Z,4.60
2023-01-31T19:05:03.420Z,4.15
2023-01-31T19:10:05.594Z,4.10
2023-01-31T19:15:09.975Z,4.00
2023-01-31T19:20:12.338Z,3.72
2023-01-31T19:25:14.750Z,3.97
2023-01-31T19:30:16.672Z,4.20
2023-01-31T19:35:18.576Z,8.65
2023-01-31T19:40:20.406Z,3.80
2023-01-31T19:45:22.806Z,5.95
2023-01-31T19:50:24.833Z,3.53
2023-01-31T19:55:26.697Z,4.05
2023-01-31T20:00:28.550Z,4.53
2023-01-31T20:05:32.684Z,3.78
2023-01-31T20:10:35.870Z,4.00
2023-01-31T20:15:37.737Z,3.72
2023-01-31T20:20:39.584Z,2.85
2023-01-31T20:25:41.381Z,3.72
2023-01-31T20:30:43.571Z,3.97
2023-01-31T20:35:46.437Z,3.58
2023-01-31T20:40:52.831Z,3.53
2023-01-31T20:46:07.378Z,3.30
2023-01-31T20:51:09.332Z,3.38
2023-01-31T20:56:11.611Z,3.15
2023-01-31T21:01:13.524Z,3.53
2023-01-31T21:06:15.367Z,3.83
2023-01-31T21:11:17.237Z,4.93
2023-01-31T21:16:19.231Z,3.80
2023-01-31T21:21:24.397Z,3.78
2023-01-31T21:26:27.212Z,3.40
2023-01-31T21:31:29.769Z,4.03
2023-01-31T21:36:34.065Z,4.32
2023-01-31T21:41:54.420Z,4.70
2023-01-31T21:46:59.583Z,5.95
2023-01-31T21:52:02.051Z,5.18
2023-01-31T21:57:04.145Z,4.90
2023-01-31T22:02:06.406Z,4.32
2023-01-31T22:07:08.738Z,5.32
2023-01-31T22:12:10.551Z,7.70
2023-01-31T22:17:12.387Z,6.90
2023-01-31T22:22:14.163Z,6.18
2023-01-31T22:27:16.020Z,7.00
2023-01-31T22:32:17.850Z,6.32
2023-01-31T22:37:19.614Z,6.32
2023-01-31T22:42:21.380Z,10.68
2023-01-31T22:47:24.229Z,5.47
2023-01-31T22:52:26.056Z,6.60
2023-01-31T22:57:27.918Z,6.20
2023-01-31T23:02:29.709Z,6.40
2023-01-31T23:07:31.633Z,7.55
2023-01-31T23:12:33.457Z,8.70
2023-01-31T23:17:39.506Z,5.82
2023-01-31T23:22:42.310Z,9.85
2023-01-31T23:27:44.135Z,7.22
2023-01-31T23:32:46.008Z,8.32
2023-01-31T23:37:47.778Z,6.70
2023-01-31T23:42:49.671Z,11.77
2023-01-31T23:47:51.489Z,7.40
2023-01-31T23:52:53.444Z,7.85
2023-01-31T23:57:55.407Z,7.25
